createdAt,value
2023-05-12T00:02:08.203Z,24.20
2023-05-12T00:04:37.472Z,24.20
2023-05-12T00:07:07.726Z,24.30
2023-05-12T00:09:36.964Z,24.40
2023-05-12T00:12:05.620Z,24.50
2023-05-12T00:14:33.951Z,24.60
2023-05-12T00:17:02.318Z,24.70
2023-05-12T00:19:30.635Z,24.60
2023-05-12T00:21:58.973Z,24.80
2023-05-12T00:24:27.494Z,24.70
2023-05-12T00:26:55.988Z,24.60
2023-05-12T00:29:24.327Z,24.30
2023-05-12T00:31:52.660Z,24.40
2023-05-12T00:34:21.038Z,24.50
2023-05-12T00:36:49.372Z,24.10
2023-05-12T00:39:17.657Z,24.30
2023-05-12T00:41:46.119Z,24.30
2023-05-12T00:44:14.662Z,24.40
2023-05-12T00:46:43.208Z,24.50
2023-05-12T00:49:12.212Z,24.50
2023-05-12T00:51:41.450Z,24.50
2023-05-12T00:54:10.227Z,24.50
2023-05-12T00:56:40.136Z,24.50
2023-05-12T00:59:08.631Z,24.30
2023-05-12T01:01:37.427Z,24.30
2023-05-12T01:04:06.185Z,24.30
2023-05-12T01:06:50.344Z,24.30
2023-05-12T01:09:19.119Z,24.20
2023-05-12T01:11:47.421Z,24.30
2023-05-12T01:14:15.785Z,24.30
2023-05-12T01:16:54.813Z,24.30
2023-05-12T01:19:55.532Z,24.30
2023-05-12T01:22:24.904Z,24.30
2023-05-12T01:25:00.221Z,24.30
2023-05-12T01:27:30.377Z,24.40
2023-05-12T01:30:02.098Z,24.40
2023-05-12T01:32:32.216Z,24.40
2023-05-12T01:35:01.634Z,24.50
2023-05-12T01:37:30.066Z,24.50
2023-05-12T01:39:58.413Z,24.50
2023-05-12T01:42:26.969Z,24.40
2023-05-12T01:44:55.687Z,24.30
2023-05-12T01:47:24.193Z,24.30
2023-05-12T01:49:55.192Z,24.20
2023-05-12T01:52:23.586Z,24.10
2023-05-12T01:54:52.297Z,24.10
2023-05-12T01:57:21.135Z,24.20
2023-05-12T01:59:50.150Z,24.10
2023-05-12T02:02:18.870Z,24.10
2023-05-12T02:04:47.516Z,24.10
2023-05-12T02:07:16.568Z,24.10
2023-05-12T02:09:45.529Z,24.10
2023-05-12T02:12:14.331Z,24.00
2023-05-12T02:14:42.865Z,24.00
2023-05-12T02:17:11.733Z,23.90
2023-05-12T02:19:40.242Z,23.80
2023-05-12T02:22:08.628Z,23.80
2023-05-12T02:24:37.069Z,23.90
2023-05-12T02:27:05.652Z,23.70
2023-05-12T02:29:34.010Z,23.80
2023-05-12T02:32:02.455Z,23.60
2023-05-12T02:34:30.977Z,23.50
2023-05-12T02:36:59.425Z,23.40
2023-05-12T02:39:27.903Z,23.30
2023-05-12T02:41:56.417Z,23.20
2023-05-12T02:44:24.771Z,23.10
2023-05-12T02:46:53.119Z,23.00
2023-05-12T02:49:21.795Z,22.90
2023-05-12T02:51:50.188Z,22.70
2023-05-12T02:54:18.734Z,22.60
2023-05-12T02:56:47.108Z,22.40
2023-05-12T02:59:15.537Z,22.40
2023-05-12T03:01:44.021Z,22.30
2023-05-12T03:04:12.457Z,22.10
2023-05-12T03:06:40.785Z,22.00
2023-05-12T03:09:09.272Z,21.80
2023-05-12T03:11:37.729Z,21.70
2023-05-12T03:14:06.099Z,21.50
2023-05-12T03:16:34.513Z,21.50
2023-05-12T03:19:03.491Z,21.20
2023-05-12T03:21:32.003Z,21.00
2023-05-12T03:24:00.329Z,20.70
2023-05-12T03:26:28.734Z,20.70
2023-05-12T03:28:57.375Z,20.60
2023-05-12T03:31:25.730Z,20.50
2023-05-12T03:33:54.089Z,20.30
2023-05-12T03:36:22.490Z,20.20
2023-05-12T03:38:50.900Z,20.10
2023-05-12T03:41:19.305Z,19.90
2023-05-12T03:43:47.570Z,19.70
2023-05-12T03:46:16.228Z,19.60
2023-05-12T03:48:44.623Z,19.40
2023-05-12T03:51:13.030Z,19.20
2023-05-12T03:53:45.957Z,19.20
2023-05-12T03:56:14.757Z,19.20
2023-05-12T03:58:43.189Z,19.10
2023-05-12T04:01:11.816Z,19.10
2023-05-12T04:03:42.118Z,19.00
2023-05-12T04:06:10.651Z,18.80
2023-05-12T04:08:41.716Z,18.80
2023-05-12T04:11:10.382Z,18.80
2023-05-12T04:13:38.720Z,18.70
2023-05-12T04:16:07.744Z,18.60
2023-05-12T04:18:37.456Z,18.40
2023-05-12T04:21:06.294Z,18.40
2023-05-12T04:23:34.626Z,18.40
2023-05-12T04:26:05.971Z,18.30
2023-05-12T04:28:34.364Z,18.20
2023-05-12T04:31:06.096Z,18.00
2023-05-12T04:33:34.470Z,17.90
2023-05-12T04:36:03.091Z,17.80
2023-05-12T04:38:31.381Z,17.80
2023-05-12T04:41:00.753Z,17.80
2023-05-12T04:46:02.210Z,17.70
2023-05-12T04:48:30.768Z,17.80
2023-05-12T04:51:01.858Z,17.90
2023-05-12T04:53:30.222Z,17.80
2023-05-12T04:55:58.588Z,17.80
2023-05-12T04:58:26.999Z,17.70
2023-05-12T05:00:55.524Z,17.70
2023-05-12T05:03:24.185Z,17.50
2023-05-12T05:05:52.523Z,17.40
2023-05-12T05:08:20.984Z,17.30
2023-05-12T05:10:49.290Z,17.30
2023-05-12T05:13:17.644Z,17.20
2023-05-12T05:15:53.489Z,17.20
2023-05-12T05:18:24.214Z,17.30
2023-05-12T05:20:57.306Z,17.20
2023-05-12T05:23:27.491Z,17.20
2023-05-12T05:25:55.904Z,17.30
2023-05-12T05:28:24.315Z,17.20
2023-05-12T05:30:52.640Z,17.20
2023-05-12T05:33:21.062Z,17.00
2023-05-12T05:35:49.773Z,17.00
2023-05-12T05:38:18.173Z,16.90
2023-05-12T05:40:53.767Z,16.80
2023-05-12T05:43:23.078Z,16.80
2023-05-12T05:45:52.289Z,16.80
2023-05-12T05:48:20.627Z,16.60
2023-05-12T05:50:49.420Z,16.70
2023-05-12T05:53:19.588Z,16.70
2023-05-12T05:55:49.542Z,16.80
2023-05-12T05:58:18.231Z,16.60
2023-05-12T06:00:46.768Z,16.70
2023-05-12T06:03:15.160Z,16.60
2023-05-12T06:05:44.028Z,16.70
2023-05-12T06:08:14.035Z,16.70
2023-05-12T06:10:42.408Z,16.60
2023-05-12T06:13:10.885Z,16.50
2023-05-12T06:15:39.259Z,16.50
2023-05-12T06:18:07.830Z,16.50
2023-05-12T06:20:36.270Z,16.40
2023-05-12T06:23:04.621Z,16.30
2023-05-12T06:25:34.037Z,16.30
2023-05-12T06:28:02.362Z,16.30
2023-05-12T06:30:30.805Z,16.30
2023-05-12T06:33:00.265Z,16.30
2023-05-12T06:35:28.903Z,16.20
2023-05-12T06:37:57.292Z,16.30
2023-05-12T06:40:25.632Z,16.30
2023-05-12T06:42:53.988Z,16.30
2023-05-12T06:45:24.179Z,16.30
2023-05-12T06:47:52.759Z,16.20
2023-05-12T06:50:21.212Z,16.10
2023-05-12T06:52:49.530Z,16.10
2023-05-12T06:55:20.823Z,16.20
2023-05-12T06:57:49.575Z,16.20
2023-05-12T07:00:18.167Z,16.20
2023-05-12T07:02:46.568Z,16.10
2023-05-12T07:05:14.994Z,16.00
2023-05-12T07:07:43.379Z,15.90
2023-05-12T07:10:11.807Z,15.90
2023-05-12T07:12:40.162Z,15.90
2023-05-12T07:15:09.357Z,15.80
2023-05-12T07:17:37.846Z,15.70
2023-05-12T07:20:06.780Z,15.70
2023-05-12T07:22:36.038Z,15.60
2023-05-12T07:25:07.541Z,15.70
2023-05-12T07:27:35.972Z,15.80
2023-05-12T07:30:04.629Z,15.80
2023-05-12T07:32:33.073Z,15.80
2023-05-12T07:35:01.447Z,15.80
2023-05-12T07:37:29.768Z,15.60
2023-05-12T07:39:58.220Z,15.60
2023-05-12T07:42:26.534Z,15.70
2023-05-12T07:44:54.911Z,15.60
2023-05-12T07:47:23.250Z,15.50
2023-05-12T07:49:51.632Z,15.40
2023-05-12T07:52:19.976Z,15.50
2023-05-12T07:54:48.347Z,15.50
2023-05-12T07:57:17.470Z,15.50
2023-05-12T07:59:45.784Z,15.50
2023-05-12T08:02:14.120Z,15.40
2023-05-12T08:04:44.373Z,15.30
2023-05-12T08:07:12.878Z,15.20
2023-05-12T08:09:41.233Z,15.20
2023-05-12T08:12:09.761Z,15.20
2023-05-12T08:14:38.493Z,15.30
2023-05-12T08:17:07.593Z,15.30
2023-05-12T08:19:35.971Z,15.20
2023-05-12T08:22:04.362Z,15.10
2023-05-12T08:24:32.658Z,15.10
2023-05-12T08:27:01.065Z,15.10
2023-05-12T08:29:29.948Z,15.00
2023-05-12T08:31:59.651Z,15.00
2023-05-12T08:34:28.175Z,15.00
2023-05-12T08:36:57.854Z,15.00
2023-05-12T08:39:26.226Z,15.00
2023-05-12T08:42:05.634Z,15.00
2023-05-12T08:44:34.679Z,15.00
2023-05-12T08:47:05.231Z,15.00
2023-05-12T08:49:36.383Z,15.00
2023-05-12T08:52:05.753Z,14.90
2023-05-12T08:54:37.847Z,14.80
2023-05-12T08:57:11.752Z,14.70
2023-05-12T08:59:44.580Z,14.70
2023-05-12T09:02:14.698Z,14.60
2023-05-12T09:04:43.750Z,14.50
2023-05-12T09:07:12.897Z,14.50
2023-05-12T09:09:45.150Z,14.50
2023-05-12T09:12:17.003Z,14.60
2023-05-12T09:14:50.531Z,14.50
2023-05-12T09:17:19.001Z,14.60
2023-05-12T09:19:47.288Z,14.40
2023-05-12T09:22:17.314Z,14.40
2023-05-12T09:24:45.688Z,14.40
2023-05-12T09:27:13.971Z,14.30
2023-05-12T09:29:58.587Z,14.30
2023-05-12T09:32:35.457Z,14.20
2023-05-12T09:35:08.759Z,14.20
2023-05-12T09:37:37.110Z,14.20
2023-05-12T09:40:07.494Z,14.20
2023-05-12T09:42:36.806Z,14.20
2023-05-12T09:45:12.231Z,14.20
2023-05-12T09:47:41.767Z,14.20
2023-05-12T09:50:10.855Z,14.20
2023-05-12T09:52:40.871Z,14.10
2023-05-12T09:55:15.377Z,14.10
2023-05-12T09:57:45.363Z,14.00
2023-05-12T10:00:31.317Z,13.90
2023-05-12T10:03:08.135Z,13.70
2023-05-12T10:05:37.672Z,13.70
2023-05-12T10:08:08.919Z,13.50
2023-05-12T10:10:38.029Z,13.50
2023-05-12T10:13:07.031Z,13.50
2023-05-12T10:15:36.179Z,13.50
2023-05-12T10:18:04.769Z,13.50
2023-05-12T10:20:34.091Z,13.50
2023-05-12T10:23:02.992Z,13.40
2023-05-12T10:25:33.463Z,13.40
2023-05-12T10:28:04.691Z,13.30
2023-05-12T10:30:33.646Z,13.20
2023-05-12T10:33:03.480Z,13.20
2023-05-12T10:35:36.173Z,13.20
2023-05-12T10:38:12.451Z,13.10
2023-05-12T10:41:03.809Z,13.10
2023-05-12T10:43:44.363Z,13.40
2023-05-12T10:46:23.464Z,13.10
2023-05-12T10:48:55.628Z,13.10
2023-05-12T10:51:27.229Z,13.00
2023-05-12T10:54:04.483Z,13.10
2023-05-12T10:56:39.410Z,13.20
2023-05-12T10:59:22.850Z,13.10
2023-05-12T11:02:15.885Z,13.10
2023-05-12T11:04:52.903Z,12.90
2023-05-12T11:07:27.929Z,13.00
2023-05-12T11:10:01.231Z,13.00
2023-05-12T11:12:34.457Z,13.00
2023-05-12T11:15:04.272Z,13.00
2023-05-12T11:17:33.064Z,13.00
2023-05-12T11:20:02.138Z,12.80
2023-05-12T11:22:30.668Z,12.70
2023-05-12T11:24:59.336Z,12.70
2023-05-12T11:27:27.706Z,12.80
2023-05-12T11:30:00.961Z,12.80
2023-05-12T11:32:30.437Z,12.70
2023-05-12T11:35:16.737Z,12.70
2023-05-12T11:37:46.628Z,12.50
2023-05-12T11:40:22.657Z,12.60
2023-05-12T11:42:53.266Z,12.50
2023-05-12T11:45:39.684Z,12.60
2023-05-12T11:48:13.102Z,12.60
2023-05-12T11:50:43.590Z,12.60
2023-05-12T11:53:17.981Z,12.50
2023-05-12T11:55:54.908Z,12.50
2023-05-12T11:58:28.157Z,12.60
2023-05-12T12:00:57.937Z,12.40
2023-05-12T12:03:26.881Z,12.40
2023-05-12T12:06:03.799Z,12.40
2023-05-12T12:08:32.615Z,12.40
2023-05-12T12:11:03.399Z,12.40
2023-05-12T12:13:32.030Z,12.30
2023-05-12T12:16:00.782Z,12.20
2023-05-12T12:18:29.115Z,12.20
2023-05-12T12:20:57.550Z,12.10
2023-05-12T12:23:25.887Z,12.20
2023-05-12T12:25:54.336Z,12.20
2023-05-12T12:28:22.617Z,12.10
2023-05-12T12:30:51.376Z,12.10
2023-05-12T12:33:20.742Z,12.10
2023-05-12T12:35:49.150Z,12.20
2023-05-12T12:38:17.544Z,12.00
2023-05-12T12:40:46.235Z,12.00
2023-05-12T12:43:14.814Z,11.90
2023-05-12T12:45:43.077Z,11.90
2023-05-12T12:48:11.497Z,12.00
2023-05-12T12:50:40.186Z,12.00
2023-05-12T12:53:08.525Z,12.00
2023-05-12T12:55:37.298Z,11.80
2023-05-12T12:58:05.641Z,11.80
2023-05-12T13:00:33.977Z,11.90
2023-05-12T13:03:02.510Z,11.90
2023-05-12T13:05:30.911Z,11.90
2023-05-12T13:07:59.304Z,12.00
2023-05-12T13:10:27.980Z,11.90
2023-05-12T13:12:56.340Z,12.00
2023-05-12T13:15:25.068Z,12.00
2023-05-12T13:17:53.742Z,12.10
2023-05-12T13:20:22.318Z,12.10
2023-05-12T13:22:50.796Z,12.10
2023-05-12T13:25:19.234Z,12.20
2023-05-12T13:27:47.713Z,12.30
2023-05-12T13:30:16.204Z,12.40
2023-05-12T13:32:44.565Z,12.40
2023-05-12T13:35:12.928Z,12.60
2023-05-12T13:37:41.260Z,12.70
2023-05-12T13:40:10.622Z,13.00
2023-05-12T13:42:39.133Z,13.10
2023-05-12T13:45:07.963Z,13.20
2023-05-12T13:47:36.439Z,13.40
2023-05-12T13:50:05.008Z,13.70
2023-05-12T13:52:33.331Z,13.90
2023-05-12T13:55:01.756Z,14.10
2023-05-12T13:57:30.097Z,14.20
2023-05-12T13:59:59.295Z,14.30
2023-05-12T14:02:27.767Z,14.40
2023-05-12T14:04:57.471Z,14.60
2023-05-12T14:07:26.187Z,14.80
2023-05-12T14:09:54.473Z,15.10
2023-05-12T14:12:25.334Z,15.20
2023-05-12T14:14:53.751Z,15.30
2023-05-12T14:17:22.138Z,15.50
2023-05-12T14:19:50.476Z,15.60
2023-05-12T14:22:26.333Z,15.90
2023-05-12T14:24:57.531Z,16.00
2023-05-12T14:27:26.055Z,16.00
2023-05-12T14:29:54.470Z,16.30
2023-05-12T14:32:22.903Z,16.30
2023-05-12T14:34:51.248Z,16.40
2023-05-12T14:37:19.565Z,16.60
2023-05-12T14:39:50.249Z,16.80
2023-05-12T14:42:19.257Z,17.20
2023-05-12T14:44:47.576Z,17.10
2023-05-12T14:47:15.869Z,17.20
2023-05-12T14:49:45.679Z,17.40
2023-05-12T14:52:14.166Z,17.60
2023-05-12T14:54:42.856Z,17.20
2023-05-12T14:57:11.416Z,17.20
2023-05-12T14:59:39.803Z,17.50
2023-05-12T15:02:08.923Z,17.70
2023-05-12T15:04:37.495Z,17.50
2023-05-12T15:07:05.905Z,17.40
2023-05-12T15:09:34.272Z,17.90
2023-05-12T15:12:04.640Z,17.90
2023-05-12T15:14:32.926Z,18.90
2023-05-12T15:17:01.288Z,20.20
2023-05-12T15:19:29.609Z,21.60
2023-05-12T15:21:57.889Z,22.90
2023-05-12T15:24:26.447Z,23.80
2023-05-12T15:26:54.826Z,25.50
2023-05-12T15:29:23.222Z,26.70
2023-05-12T15:31:51.663Z,28.40
2023-05-12T15:34:20.431Z,30.30
2023-05-12T15:36:49.622Z,30.90
2023-05-12T15:39:18.290Z,31.10
2023-05-12T15:41:46.642Z,30.60
2023-05-12T15:44:14.953Z,32.20
2023-05-12T15:46:43.668Z,33.20
2023-05-12T15:49:12.692Z,33.50
2023-05-12T15:51:40.971Z,34.20
2023-05-12T15:54:09.735Z,33.90
2023-05-12T15:56:38.279Z,35.30
2023-05-12T15:59:07.608Z,34.70
2023-05-12T16:01:36.036Z,35.70
2023-05-12T16:04:04.810Z,36.30
2023-05-12T16:06:33.145Z,36.50
2023-05-12T16:09:01.653Z,36.40
2023-05-12T16:11:30.491Z,36.60
2023-05-12T16:13:58.929Z,37.80
2023-05-12T16:16:27.402Z,38.00
2023-05-12T16:18:55.764Z,34.90
2023-05-12T16:21:24.228Z,35.20
2023-05-12T16:23:52.803Z,35.00
2023-05-12T16:26:21.234Z,34.60
2023-05-12T16:28:49.589Z,35.50
2023-05-12T16:31:19.396Z,36.50
2023-05-12T16:33:47.774Z,35.60
2023-05-12T16:36:17.717Z,34.30
2023-05-12T16:38:46.198Z,34.20
2023-05-12T16:41:14.648Z,36.70
2023-05-12T16:43:42.947Z,36.70
2023-05-12T16:46:11.427Z,36.50
2023-05-12T16:48:39.838Z,35.70
2023-05-12T16:51:10.057Z,34.60
2023-05-12T16:53:38.819Z,36.40
2023-05-12T16:56:07.405Z,35.60
2023-05-12T16:58:35.820Z,34.90
2023-05-12T17:01:04.569Z,34.90
2023-05-12T17:03:33.025Z,36.20
2023-05-12T17:06:01.550Z,34.70
2023-05-12T17:08:29.885Z,37.00
2023-05-12T17:10:58.216Z,38.40
2023-05-12T17:13:26.672Z,37.10
2023-05-12T17:15:55.319Z,36.30
2023-05-12T17:18:25.514Z,35.70
2023-05-12T17:20:53.896Z,35.20
2023-05-12T17:23:22.363Z,35.20
2023-05-12T17:25:50.658Z,34.30
2023-05-12T17:28:18.963Z,33.50
2023-05-12T17:30:47.375Z,32.50
2023-05-12T17:33:16.360Z,31.50
2023-05-12T17:35:53.507Z,31.30
2023-05-12T17:38:28.262Z,30.80
2023-05-12T17:40:56.775Z,31.20
2023-05-12T17:43:25.083Z,29.80
2023-05-12T17:45:53.380Z,29.60
2023-05-12T17:48:21.754Z,29.20
2023-05-12T17:50:50.058Z,29.60
2023-05-12T17:53:18.363Z,29.40
2023-05-12T17:55:46.656Z,30.50
2023-05-12T17:58:15.024Z,30.90
2023-05-12T18:00:43.400Z,30.90
2023-05-12T18:03:11.865Z,30.20
2023-05-12T18:05:40.405Z,30.60
2023-05-12T18:08:08.738Z,30.70
2023-05-12T18:10:37.768Z,30.20
2023-05-12T18:13:08.239Z,29.60
2023-05-12T18:15:36.793Z,29.30
2023-05-12T18:18:05.344Z,28.60
2023-05-12T18:20:33.664Z,29.20
2023-05-12T18:23:01.979Z,29.50
2023-05-12T18:25:30.324Z,30.00
2023-05-12T18:27:58.790Z,30.50
2023-05-12T18:30:27.120Z,30.90
2023-05-12T18:32:55.602Z,31.60
2023-05-12T18:35:24.499Z,32.40
2023-05-12T18:37:52.930Z,32.20
2023-05-12T18:40:21.414Z,31.00
2023-05-12T18:42:49.763Z,29.80
2023-05-12T18:45:19.204Z,30.70
2023-05-12T18:47:47.682Z,31.60
2023-05-12T18:50:16.083Z,32.30
2023-05-12T18:52:44.620Z,33.00
2023-05-12T18:55:13.047Z,32.40
2023-05-12T18:57:41.370Z,33.50
2023-05-12T19:00:10.911Z,34.20
2023-05-12T19:02:39.327Z,35.70
2023-05-12T19:05:08.034Z,36.50
2023-05-12T19:07:37.154Z,35.90
2023-05-12T19:10:05.891Z,36.20
2023-05-12T19:12:34.302Z,36.90
2023-05-12T19:15:02.635Z,36.90
2023-05-12T19:17:30.977Z,38.30
2023-05-12T19:19:59.298Z,37.80
2023-05-12T19:22:28.265Z,36.80
2023-05-12T19:24:56.693Z,37.00
2023-05-12T19:27:25.540Z,36.70
2023-05-12T19:29:53.874Z,35.70
2023-05-12T19:32:22.543Z,37.30
2023-05-12T19:34:53.957Z,36.00
2023-05-12T19:37:22.535Z,37.00
2023-05-12T19:39:52.530Z,37.60
2023-05-12T19:42:21.262Z,37.60
2023-05-12T19:44:49.795Z,37.10
2023-05-12T19:47:18.379Z,37.50
2023-05-12T19:49:46.669Z,35.90
2023-05-12T19:52:15.021Z,34.60
2023-05-12T19:54:43.428Z,31.70
2023-05-12T19:57:11.712Z,30.70
2023-05-12T19:59:40.064Z,30.70
2023-05-12T20:02:10.849Z,30.40
2023-05-12T20:04:39.413Z,29.90
2023-05-12T20:07:07.759Z,29.70
2023-05-12T20:09:36.143Z,29.40
2023-05-12T20:12:08.361Z,28.90
2023-05-12T20:14:37.185Z,28.90
2023-05-12T20:17:07.494Z,28.60
2023-05-12T20:19:36.236Z,28.30
2023-05-12T20:22:04.577Z,28.10
2023-05-12T20:24:33.033Z,28.10
2023-05-12T20:27:01.373Z,28.10
2023-05-12T20:29:30.994Z,28.20
2023-05-12T20:31:59.341Z,28.20
2023-05-12T20:34:27.698Z,28.20
2023-05-12T20:36:56.512Z,28.20
2023-05-12T20:39:24.892Z,28.10
2023-05-12T20:41:53.217Z,28.20
2023-05-12T20:44:21.974Z,28.40
2023-05-12T20:46:50.496Z,28.00
2023-05-12T20:49:18.840Z,28.00
2023-05-12T20:51:47.111Z,27.90
2023-05-12T20:54:15.431Z,28.00
2023-05-12T20:56:43.730Z,27.60
2023-05-12T20:59:12.044Z,27.60
2023-05-12T21:01:40.408Z,27.70
2023-05-12T21:04:08.896Z,27.70
2023-05-12T21:06:37.860Z,27.80
2023-05-12T21:09:06.342Z,27.50
2023-05-12T21:11:34.696Z,27.50
2023-05-12T21:14:02.982Z,27.50
2023-05-12T21:16:31.336Z,27.50
2023-05-12T21:18:59.800Z,27.60
2023-05-12T21:21:29.377Z,27.60
2023-05-12T21:23:57.691Z,27.40
2023-05-12T21:26:28.376Z,27.60
2023-05-12T21:28:56.979Z,27.70
2023-05-12T21:31:25.294Z,27.60
2023-05-12T21:33:53.850Z,27.80
2023-05-12T21:36:22.149Z,27.90
2023-05-12T21:38:50.414Z,27.70
2023-05-12T21:41:18.768Z,27.60
2023-05-12T21:43:47.123Z,27.60
2023-05-12T21:46:15.441Z,27.80
2023-05-12T21:48:44.061Z,27.80
2023-05-12T21:51:12.743Z,27.90
2023-05-12T21:53:41.066Z,28.10
2023-05-12T21:56:09.390Z,28.00
2023-05-12T21:58:37.783Z,28.10
2023-05-12T22:01:06.118Z,28.10
2023-05-12T22:03:34.584Z,28.10
2023-05-12T22:06:02.906Z,28.30
2023-05-12T22:08:31.220Z,28.20
2023-05-12T22:10:59.547Z,28.30
2023-05-12T22:13:27.989Z,28.10
2023-05-12T22:15:56.309Z,28.20
2023-05-12T22:18:24.637Z,28.20
2023-05-12T22:20:53.281Z,28.30
2023-05-12T22:23:22.061Z,28.50
2023-05-12T22:25:50.594Z,28.50
2023-05-12T22:28:18.969Z,28.50
2023-05-12T22:30:47.389Z,28.60
2023-05-12T22:33:15.752Z,28.50
2023-05-12T22:35:44.057Z,28.70
2023-05-12T22:38:12.399Z,28.70
2023-05-12T22:40:40.738Z,28.60
2023-05-12T22:43:10.287Z,28.60
2023-05-12T22:45:38.565Z,28.50
2023-05-12T22:48:06.963Z,28.60
2023-05-12T22:50:35.320Z,28.80
2023-05-12T22:53:03.656Z,28.90
2023-05-12T22:55:32.122Z,28.80
2023-05-12T22:58:01.032Z,28.90
2023-05-12T23:00:29.398Z,28.90
2023-05-12T23:02:57.910Z,28.80
2023-05-12T23:05:26.416Z,28.80
2023-05-12T23:07:55.134Z,28.90
2023-05-12T23:10:23.693Z,29.00
2023-05-12T23:12:52.196Z,29.00
2023-05-12T23:15:21.122Z,29.10
2023-05-12T23:17:49.461Z,29.10
2023-05-12T23:20:17.844Z,29.20
2023-05-12T23:22:46.153Z,29.30
2023-05-12T23:25:14.443Z,29.30
2023-05-12T23:27:42.851Z,29.20
2023-05-12T23:30:11.342Z,29.30
2023-05-12T23:32:39.795Z,29.40
2023-05-12T23:35:09.124Z,29.20
2023-05-12T23:37:37.483Z,29.30
2023-05-12T23:40:06.368Z,29.40
2023-05-12T23:42:34.685Z,29.50
2023-05-12T23:45:02.979Z,29.10
2023-05-12T23:47:31.589Z,29.30
2023-05-12T23:49:59.940Z,29.30
2023-05-12T23:52:28.328Z,29.50
2023-05-12T23:54:56.743Z,29.60
2023-05-12T23:57:25.120Z,29.60
2023-05-12T23:59:53.436Z,29.60
